Time;durP1;ratioP1;P1;durP2;ratioP2;P2;SDS_P1;SDS_P2;PMS_P1;PMS_P2;Temp;Humidity;BMP_temperature;BMP_pressure;BME280_temperature;BME280_humidity;BME280_pressure;Samples;Min_cycle;Max_cycle;Signal;HPM_P1;HPM_P2
2022/02/15 00:00:13;;;;;;;0.10;0.10;;;;;;;8.31;67.94;100722.31;5075946;28;20040;-77
2022/02/15 00:02:39;;;;;;;0.00;0.00;;;;;;;8.38;68.20;100731.88;5076026;28;20028;-77
2022/02/15 00:05:06;;;;;;;0.00;0.00;;;;;;;8.38;67.56;100737.16;5075517;28;20047;-77
2022/02/15 00:07:32;;;;;;;0.10;0.10;;;;;;;8.47;67.98;100740.63;5075246;28;20082;-77
2022/02/15 00:09:58;;;;;;;0.10;0.10;;;;;;;8.47;67.81;100740.63;5075592;28;20033;-77
2022/02/15 00:12:25;;;;;;;0.10;0.10;;;;;;;8.43;67.45;100740.59;5075991;28;20051;-77
2022/02/15 00:14:51;;;;;;;0.05;0.05;;;;;;;8.49;67.99;100744.13;5075709;28;20032;-77
2022/02/15 00:17:17;;;;;;;0.00;0.00;;;;;;;8.54;67.19;100747.56;5075929;28;20364;-77
2022/02/15 00:19:44;;;;;;;0.10;0.10;;;;;;;8.57;67.82;100747.50;5074811;28;20021;-77
2022/02/15 00:22:10;;;;;;;0.10;0.10;;;;;;;8.66;66.89;100742.13;5075421;28;20030;-77
2022/02/15 00:24:37;;;;;;;0.10;0.10;;;;;;;8.68;67.05;100750.03;5076399;28;20360;-77
2022/02/15 00:27:04;;;;;;;0.05;0.05;;;;;;;8.69;67.39;100746.50;5075042;28;20165;-77
2022/02/15 00:29:30;;;;;;;0.13;0.13;;;;;;;8.70;67.33;100743.81;5074906;28;20032;-77
2022/02/15 00:31:58;;;;;;;4.82;0.75;;;;;;;8.67;67.02;100738.59;5075447;28;20108;-75
2022/02/15 00:34:26;;;;;;;0.08;0.08;;;;;;;8.70;66.90;100743.81;5075242;28;20417;-77
2022/02/15 00:36:52;;;;;;;0.10;0.10;;;;;;;8.72;66.66;100742.03;5057702;28;20067;-77
2022/02/15 00:39:19;;;;;;;0.10;0.10;;;;;;;8.71;67.00;100744.69;5056833;28;20043;-77
2022/02/15 00:41:46;;;;;;;0.10;0.10;;;;;;;8.74;67.35;100739.38;5074688;28;20113;-77
2022/02/15 00:44:12;;;;;;;0.10;0.10;;;;;;;8.66;66.90;100749.16;5075160;28;20120;-77
2022/02/15 00:46:38;;;;;;;0.40;0.40;;;;;;;8.67;66.59;100751.81;5074795;28;20062;-77
2022/02/15 00:49:04;;;;;;;0.10;0.10;;;;;;;8.67;66.59;100757.09;5074219;28;20028;-77
2022/02/15 00:51:30;;;;;;;0.10;0.10;;;;;;;8.67;66.79;100753.56;5074551;28;20043;-77
2022/02/15 00:53:57;;;;;;;0.30;0.30;;;;;;;8.60;67.32;100751.88;5074026;28;20520;-77
2022/02/15 00:56:23;;;;;;;0.70;0.60;;;;;;;8.59;67.22;100758.94;5074649;28;20055;-77
2022/02/15 00:58:49;;;;;;;0.10;0.10;;;;;;;8.53;66.89;100759.03;5074636;28;20028;-77
2022/02/15 01:01:16;;;;;;;0.80;0.80;;;;;;;8.54;66.59;100764.28;5074477;28;20036;-78
2022/02/15 01:03:42;;;;;;;0.03;0.03;;;;;;;8.48;67.17;100755.56;5073688;28;20047;-77
2022/02/15 01:06:09;;;;;;;0.10;0.10;;;;;;;8.39;67.51;100754.75;5074385;28;20075;-77
2022/02/15 01:08:35;;;;;;;0.95;0.95;;;;;;;8.37;67.06;100761.84;5091271;22;20060;-81
2022/02/15 01:11:02;;;;;;;0.00;0.00;;;;;;;8.30;67.10;100773.34;5042290;28;20369;-83
2022/02/15 01:13:28;;;;;;;0.20;0.20;;;;;;;8.32;66.54;100773.31;5048648;28;20398;-83
2022/02/15 01:15:56;;;;;;;0.10;0.10;;;;;;;8.27;67.29;100783.94;5045764;28;20032;-83
2022/02/15 01:18:26;;;;;;;0.00;0.00;;;;;;;8.24;67.32;100786.63;5047073;28;20518;-83
2022/02/15 01:20:53;;;;;;;0.10;0.10;;;;;;;8.24;67.39;100781.34;5042840;28;20045;-83
2022/02/15 01:23:20;;;;;;;0.10;0.10;;;;;;;8.22;66.89;100791.94;5040212;28;20033;-83
2022/02/15 01:25:46;;;;;;;0.10;0.10;;;;;;;8.19;67.60;100789.31;5042183;28;20143;-84
2022/02/15 01:28:13;;;;;;;0.10;0.10;;;;;;;8.19;67.41;100793.72;5042053;28;20028;-83
2022/02/15 01:30:42;;;;;;;0.00;0.00;;;;;;;8.25;67.13;100788.38;5050418;28;20029;-83
2022/02/15 01:33:09;;;;;;;0.10;0.10;;;;;;;8.21;67.40;100789.28;5032556;28;20071;-83
2022/02/15 01:35:37;;;;;;;0.10;0.10;;;;;;;8.25;68.13;100794.53;5047215;28;20047;-84
2022/02/15 01:38:09;;;;;;;0.17;0.17;;;;;;;8.26;67.95;100793.63;5050222;28;20068;-84
2022/02/15 01:40:35;;;;;;;;;;;;;;;8.48;67.30;100795.19;5047339;28;21138;-82
2022/02/15 01:43:02;;;;;;;0.10;0.10;;;;;;;8.35;67.81;100794.41;5046763;28;19920;-83
2022/02/15 01:45:28;;;;;;;0.00;0.00;;;;;;;8.37;67.75;100797.91;5047149;28;20079;-84
2022/02/15 01:47:55;;;;;;;0.10;0.10;;;;;;;8.42;68.26;100802.25;5049516;28;20106;-83
2022/02/15 01:50:21;;;;;;;0.05;0.05;;;;;;;8.45;67.82;100800.44;5046258;28;20066;-82
2022/02/15 01:52:48;;;;;;;0.05;0.05;;;;;;;8.49;68.07;100802.22;5051256;28;20033;-84
2022/02/15 01:55:25;;;;;;;0.00;0.00;;;;;;;8.58;68.39;100810.00;5050470;28;20033;-83
2022/02/15 01:57:51;;;;;;;0.00;0.00;;;;;;;8.54;67.90;100810.94;5046781;28;20033;-83
2022/02/15 02:00:19;;;;;;;0.10;0.10;;;;;;;8.56;68.05;100814.44;5051850;28;20443;-82
2022/02/15 02:02:47;;;;;;;0.10;0.10;;;;;;;8.57;68.23;100811.78;5050061;28;20029;-82
2022/02/15 02:05:55;;;;;;;0.10;0.10;;;;;;;8.62;67.58;100811.72;5047202;28;20025;-82
2022/02/15 02:08:02;;;;;;;0.00;0.00;;;;;;;8.62;67.85;100803.78;5049184;28;20377;-82
2022/02/15 02:10:28;;;;;;;0.10;0.10;;;;;;;8.67;67.89;100807.28;5024159;28;20029;-82
2022/02/15 02:12:54;;;;;;;0.10;0.10;;;;;;;8.69;67.41;100807.25;5045380;28;20074;-84
2022/02/15 02:15:24;;;;;;;0.10;0.10;;;;;;;8.71;67.70;100806.34;5049688;28;20033;-82
2022/02/15 02:17:52;;;;;;;0.10;0.10;;;;;;;8.64;68.35;100812.56;5044714;28;20029;-83
2022/02/15 02:20:19;;;;;;;0.03;0.03;;;;;;;8.71;68.14;100801.03;5048685;28;20033;-83
2022/02/15 02:22:46;;;;;;;0.10;0.10;;;;;;;8.73;67.49;100807.19;5051145;28;20514;-84
2022/02/15 02:25:15;;;;;;;0.00;0.00;;;;;;;8.68;68.27;100803.72;5050179;28;20037;-82
2022/02/15 02:27:42;;;;;;;0.10;0.10;;;;;;;8.74;67.75;100798.34;5046159;28;20036;-83
2022/02/15 02:30:09;;;;;;;0.10;0.10;;;;;;;8.78;68.24;100803.59;5049166;28;20029;-82
2022/02/15 02:32:35;;;;;;;0.10;0.10;;;;;;;8.80;68.22;100807.09;5046357;28;20052;-83
2022/02/15 02:35:04;;;;;;;0.10;0.10;;;;;;;8.82;68.44;100813.22;5050187;28;20029;-81
2022/02/15 02:37:32;;;;;;;1.33;1.17;;;;;;;8.93;68.24;100816.59;5049763;28;20033;-82
2022/02/15 02:40:02;;;;;;;0.10;0.10;;;;;;;8.93;68.57;100821.88;5043197;28;20464;-84
2022/02/15 02:42:30;;;;;;;0.10;0.10;;;;;;;9.05;68.19;100824.34;5047062;28;20416;-83
2022/02/15 02:44:58;;;;;;;0.08;0.08;;;;;;;9.06;67.96;100822.59;5044694;28;20095;-82
2022/02/15 02:47:25;;;;;;;0.10;0.10;;;;;;;9.06;68.24;100830.53;5040267;28;20483;-83
2022/02/15 02:49:52;;;;;;;0.10;0.10;;;;;;;9.19;67.84;100831.22;5037051;28;20155;-82
2022/02/15 02:52:19;;;;;;;0.10;0.10;;;;;;;9.20;68.25;100827.69;5041014;28;20484;-82
2022/02/15 02:54:45;;;;;;;0.10;0.10;;;;;;;9.26;67.72;100835.53;5040231;28;20067;-83
2022/02/15 02:57:13;;;;;;;0.10;0.10;;;;;;;9.25;67.71;100836.44;5045711;28;20063;-83
2022/02/15 02:59:40;;;;;;;0.00;0.00;;;;;;;9.28;67.11;100840.78;5049496;28;20036;-82
2022/02/15 03:02:07;;;;;;;0.10;0.10;;;;;;;9.25;67.48;100836.44;5046693;28;20087;-82
2022/02/15 03:04:35;;;;;;;0.10;0.10;;;;;;;9.27;67.25;100839.94;5042802;28;20047;-82
2022/02/15 03:07:02;;;;;;;2.25;1.00;;;;;;;9.29;67.04;100846.06;5041489;28;20058;-84
2022/02/15 03:09:28;;;;;;;1.10;0.52;;;;;;;9.32;67.33;100843.38;5041021;28;20029;-83
2022/02/15 03:11:55;;;;;;;0.00;0.00;;;;;;;9.33;67.65;100845.13;5041167;28;20049;-83
2022/02/15 03:14:21;;;;;;;0.05;0.05;;;;;;;9.35;67.78;100843.31;5045933;28;20035;-82
2022/02/15 03:16:47;;;;;;;0.10;0.10;;;;;;;9.38;67.15;100845.03;5047360;28;20032;-81
2022/02/15 03:19:14;;;;;;;0.10;0.10;;;;;;;9.38;67.38;100848.56;5046016;28;20040;-81
2022/02/15 03:21:40;;;;;;;0.68;0.68;;;;;;;9.38;67.09;100853.88;5047482;28;20480;-82
2022/02/15 03:24:06;;;;;;;0.20;0.20;;;;;;;9.33;67.32;100849.53;5051430;28;20099;-83
2022/02/15 03:26:33;;;;;;;0.10;0.10;;;;;;;9.32;67.08;100863.63;5047219;28;20378;-82
2022/02/15 03:28:59;;;;;;;0.38;0.38;;;;;;;9.29;66.90;100880.41;5051404;28;20028;-81
2022/02/15 03:31:25;;;;;;;0.00;0.00;;;;;;;9.26;67.07;100867.25;5055529;28;20029;-82
2022/02/15 03:33:51;;;;;;;0.20;0.20;;;;;;;9.27;67.05;100866.38;5054092;28;20021;-82
2022/02/15 03:36:17;;;;;;;0.10;0.10;;;;;;;9.27;67.01;100860.19;5046705;28;20025;-82
2022/02/15 03:38:44;;;;;;;0.10;0.10;;;;;;;9.23;67.18;100870.81;5045990;28;20029;-82
2022/02/15 03:43:58;;;;;;;0.10;0.10;;;;;;;9.31;67.22;100876.00;5049369;28;20372;-81
2022/02/15 03:46:24;;;;;;;0.05;0.05;;;;;;;9.29;67.67;100879.56;5048698;28;20032;-82
2022/02/15 03:48:51;;;;;;;0.00;0.00;;;;;;;9.31;67.29;100888.31;5048951;28;20021;-81
2022/02/15 03:51:18;;;;;;;0.10;0.10;;;;;;;9.26;67.57;100895.44;5044961;28;20033;-82
2022/02/15 03:53:44;;;;;;;0.10;0.10;;;;;;;9.30;67.54;100898.03;5050197;28;20041;-82
2022/02/15 03:56:10;;;;;;;0.10;0.10;;;;;;;9.29;67.47;100903.34;5048518;28;20033;-82
2022/02/15 03:58:37;;;;;;;0.10;0.10;;;;;;;9.22;67.38;100900.78;5048045;28;20110;-82
2022/02/15 04:01:04;;;;;;;0.00;0.00;;;;;;;9.23;67.42;100902.56;5047309;28;20105;-83
2022/02/15 04:03:30;;;;;;;0.08;0.08;;;;;;;9.27;67.44;100908.69;5043435;28;20033;-84
2022/02/15 04:05:57;;;;;;;0.25;0.25;;;;;;;9.30;67.23;100907.75;5053300;28;20368;-82
2022/02/15 04:08:23;;;;;;;0.00;0.00;;;;;;;9.26;67.09;100917.50;5058108;22;20076;-76
2022/02/15 04:10:57;;;;;;;0.10;0.10;;;;;;;9.25;67.33;100913.09;5051859;28;20127;-77
2022/02/15 04:13:23;;;;;;;0.03;0.03;;;;;;;9.25;67.19;100926.31;5047634;28;20099;-76
2022/02/15 04:15:49;;;;;;;0.03;0.03;;;;;;;9.28;67.63;100930.69;5051001;28;20037;-77
2022/02/15 04:18:15;;;;;;;0.10;0.10;;;;;;;9.28;67.38;100931.56;5048202;28;20443;-77
2022/02/15 04:20:42;;;;;;;0.50;0.50;;;;;;;9.31;67.13;100931.53;5070412;28;20050;-76
2022/02/15 04:23:08;;;;;;;0.10;0.10;;;;;;;9.29;67.54;100930.66;5069675;28;20086;-76
2022/02/15 04:25:34;;;;;;;0.00;0.00;;;;;;;9.34;67.44;100944.69;5068406;28;20133;-77
2022/02/15 04:28:00;;;;;;;0.00;0.00;;;;;;;9.30;67.55;100945.63;5073791;28;20372;-77
2022/02/15 04:30:27;;;;;;;0.08;0.08;;;;;;;9.33;67.05;100936.78;5074555;28;20028;-77
2022/02/15 04:32:53;;;;;;;0.60;0.60;;;;;;;9.21;67.37;100940.47;5074220;28;20039;-77
2022/02/15 04:35:19;;;;;;;0.05;0.05;;;;;;;9.33;67.25;100942.97;5073797;28;20044;-77
2022/02/15 04:37:45;;;;;;;0.03;0.03;;;;;;;9.31;67.49;100938.56;5073990;28;20036;-77
2022/02/15 04:40:12;;;;;;;0.00;0.00;;;;;;;9.34;67.48;100939.41;5071635;28;20032;-77
2022/02/15 04:42:38;;;;;;;0.00;0.00;;;;;;;9.33;67.37;100948.25;5063718;28;20032;-77
2022/02/15 04:45:04;;;;;;;0.10;0.10;;;;;;;9.41;67.61;100941.97;5066057;28;20024;-77
2022/02/15 04:47:31;;;;;;;0.10;0.10;;;;;;;9.42;67.41;100941.06;5068147;28;20032;-77
2022/02/15 04:49:57;;;;;;;0.10;0.10;;;;;;;9.42;67.54;100946.38;5065557;28;20028;-77
2022/02/15 04:52:23;;;;;;;0.30;0.30;;;;;;;9.40;67.19;100949.03;5070966;28;20040;-77
2022/02/15 04:54:49;;;;;;;0.10;0.10;;;;;;;9.36;67.38;100956.13;5067932;28;20041;-77
2022/02/15 04:57:15;;;;;;;0.10;0.10;;;;;;;9.38;67.36;100959.63;5064558;28;20029;-77
2022/02/15 04:59:41;;;;;;;0.38;0.20;;;;;;;9.37;67.79;100957.88;5065668;28;20028;-77
2022/02/15 05:02:07;;;;;;;0.10;0.10;;;;;;;9.47;67.45;100965.69;5067907;28;20489;-77
2022/02/15 05:04:48;;;;;;;0.10;0.10;;;;;;;9.46;67.65;100966.56;5073666;28;20132;-77
2022/02/15 05:07:16;;;;;;;0.00;0.00;;;;;;;9.50;67.54;100977.09;5067151;28;20479;-77
2022/02/15 05:09:42;;;;;;;0.00;0.00;;;;;;;9.51;67.11;100980.63;5063433;28;20036;-77
2022/02/15 05:12:09;;;;;;;0.15;0.15;;;;;;;9.47;67.28;100985.09;5069324;28;20544;-77
2022/02/15 05:14:35;;;;;;;0.00;0.00;;;;;;;9.51;67.09;100978.84;5062893;28;20040;-77
2022/02/15 05:17:02;;;;;;;0.10;0.10;;;;;;;9.50;67.42;100984.19;5066713;28;20473;-77
2022/02/15 05:19:28;;;;;;;0.00;0.00;;;;;;;9.50;67.52;100986.81;5068216;28;20033;-76
2022/02/15 05:21:54;;;;;;;0.10;0.10;;;;;;;9.47;67.19;100989.50;5063210;28;20111;-77
2022/02/15 05:24:21;;;;;;;0.10;0.10;;;;;;;9.54;67.09;100993.81;5066094;28;20028;-77
2022/02/15 05:26:47;;;;;;;0.20;0.20;;;;;;;9.59;66.60;100994.63;5070160;28;20036;-76
2022/02/15 05:29:13;;;;;;;0.10;0.10;;;;;;;9.55;66.59;100998.22;5067401;28;20041;-77
2022/02/15 05:31:39;;;;;;;0.10;0.10;;;;;;;9.60;67.01;101001.66;5066330;28;20111;-77
2022/02/15 05:34:06;;;;;;;0.10;0.10;;;;;;;9.54;66.51;100996.44;5073086;28;20082;-76
2022/02/15 05:36:33;;;;;;;0.60;0.60;;;;;;;9.53;66.53;101000.00;5069914;28;20032;-77
2022/02/15 05:38:59;;;;;;;0.00;0.00;;;;;;;9.60;66.47;101006.94;5065259;28;20036;-76
2022/02/15 05:41:26;;;;;;;0.10;0.10;;;;;;;9.55;66.67;101000.84;5070694;28;20028;-77
2022/02/15 05:43:52;;;;;;;0.10;0.10;;;;;;;9.58;65.82;101003.44;5067678;28;20024;-76
2022/02/15 05:46:18;;;;;;;0.10;0.10;;;;;;;9.59;65.78;100999.03;5067471;28;20051;-76
2022/02/15 05:48:45;;;;;;;0.40;0.40;;;;;;;9.65;65.73;101005.13;5068956;28;20060;-77
2022/02/15 05:51:11;;;;;;;0.20;0.20;;;;;;;9.68;65.73;101005.09;5066034;28;20037;-76
2022/02/15 05:53:37;;;;;;;0.00;0.00;;;;;;;9.61;65.91;101007.81;5062524;28;20036;-76
2022/02/15 05:56:05;;;;;;;0.20;0.20;;;;;;;9.61;65.38;101008.72;5064541;28;20075;-77
2022/02/15 05:58:32;;;;;;;0.10;0.10;;;;;;;9.66;65.81;101006.88;5066906;28;20029;-77
2022/02/15 06:01:00;;;;;;;3.80;0.68;;;;;;;9.60;65.02;101006.94;5064196;28;20036;-76
2022/02/15 06:06:12;;;;;;;0.10;0.10;;;;;;;9.64;64.61;101011.28;5071695;28;20141;-77
2022/02/15 06:08:38;;;;;;;0.00;0.00;;;;;;;9.59;64.65;101015.78;5071627;28;20033;-77
2022/02/15 06:11:05;;;;;;;0.10;0.10;;;;;;;9.64;64.41;101026.31;5071377;28;20028;-77
2022/02/15 06:13:32;;;;;;;0.10;0.10;;;;;;;9.61;64.79;101023.69;5066533;28;20104;-79
2022/02/15 06:15:59;;;;;;;0.20;0.20;;;;;;;9.64;64.40;101021.88;5064522;28;20033;-77
2022/02/15 06:18:25;;;;;;;0.55;0.55;;;;;;;9.65;64.58;101031.56;5053698;28;20029;-77
2022/02/15 06:20:52;;;;;;;0.13;0.13;;;;;;;9.71;64.45;101030.63;5072508;28;20025;-77
2022/02/15 06:23:18;;;;;;;0.10;0.10;;;;;;;9.64;64.13;101023.66;5073265;28;20029;-77
2022/02/15 06:25:44;;;;;;;0.10;0.10;;;;;;;9.65;64.30;101031.56;5072918;28;20132;-78
2022/02/15 06:28:10;;;;;;;0.10;0.10;;;;;;;9.59;64.64;101034.28;5071828;28;20041;-77
2022/02/15 06:30:36;;;;;;;0.10;0.10;;;;;;;9.60;64.35;101021.97;5071846;28;20021;-78
2022/02/15 06:33:02;;;;;;;0.00;0.00;;;;;;;9.59;64.17;101021.06;5072693;28;20388;-78
2022/02/15 06:35:28;;;;;;;0.00;0.00;;;;;;;9.51;64.18;101026.47;5072701;28;20399;-78
2022/02/15 06:37:54;;;;;;;0.10;0.10;;;;;;;9.41;63.93;101037.16;5072771;28;20028;-78
2022/02/15 06:40:21;;;;;;;0.10;0.10;;;;;;;9.31;64.38;101036.41;5072779;28;20115;-78
2022/02/15 06:42:48;;;;;;;0.10;0.10;;;;;;;9.25;64.29;101047.06;5072410;28;20039;-78
2022/02/15 06:45:15;;;;;;;0.10;0.10;;;;;;;9.11;64.52;101045.44;5072363;28;20120;-77
2022/02/15 06:47:42;;;;;;;0.10;0.10;;;;;;;9.10;64.17;101054.25;5073033;28;20090;-77
2022/02/15 06:50:08;;;;;;;0.10;0.10;;;;;;;9.07;63.92;101052.53;5076292;28;20064;-77
2022/02/15 06:52:35;;;;;;;0.10;0.10;;;;;;;9.03;64.48;101057.84;5075935;28;20036;-77
2022/02/15 06:55:01;;;;;;;0.85;0.85;;;;;;;8.95;64.16;101055.28;5068414;28;20074;-77
2022/02/15 06:57:27;;;;;;;0.10;0.10;;;;;;;8.89;64.41;101058.00;5068134;28;20025;-77
2022/02/15 06:59:53;;;;;;;0.90;0.90;;;;;;;8.85;64.45;101064.22;5055932;28;20047;-77
2022/02/15 07:02:19;;;;;;;0.00;0.00;;;;;;;8.79;64.42;101075.69;5073956;28;20089;-78
2022/02/15 07:04:47;;;;;;;0.52;0.52;;;;;;;8.76;64.63;101080.13;5076357;28;20157;-77
2022/02/15 07:07:13;;;;;;;0.10;0.10;;;;;;;8.80;64.76;101071.28;5076267;28;20368;-77
2022/02/15 07:09:40;;;;;;;0.10;0.10;;;;;;;8.80;64.70;101081.84;5076482;28;20036;-77
2022/02/15 07:12:08;;;;;;;0.20;0.20;;;;;;;8.84;65.13;101083.59;5075931;28;20121;-77
2022/02/15 07:14:34;;;;;;;0.10;0.10;;;;;;;8.86;64.98;101087.06;5075740;28;20111;-77
2022/02/15 07:17:00;;;;;;;0.28;0.28;;;;;;;8.82;65.29;101094.19;5074675;28;20064;-76
2022/02/15 07:19:29;;;;;;;0.20;0.20;;;;;;;8.93;64.88;101099.34;5075458;28;20058;-77
2022/02/15 07:21:57;;;;;;;0.10;0.10;;;;;;;9.01;64.25;101101.91;5075617;28;20025;-76
2022/02/15 07:24:23;;;;;;;0.10;0.10;;;;;;;9.15;64.07;101102.66;5075512;28;20059;-76
2022/02/15 07:26:49;;;;;;;0.10;0.10;;;;;;;9.16;64.59;101109.72;5075546;28;20120;-76
2022/02/15 07:29:15;;;;;;;0.10;0.10;;;;;;;9.14;64.05;101107.97;5074118;28;20151;-76
2022/02/15 07:31:42;;;;;;;0.10;0.10;;;;;;;9.18;64.27;101112.34;5070447;28;20028;-76
2022/02/15 07:34:08;;;;;;;0.10;0.10;;;;;;;9.25;64.08;101114.03;5075038;28;20060;-76
2022/02/15 07:36:34;;;;;;;0.45;0.45;;;;;;;9.26;64.05;101110.50;5064318;28;20100;-75
2022/02/15 07:39:00;;;;;;;0.10;0.10;;;;;;;9.25;63.66;101116.69;5055349;28;20161;-76
2022/02/15 07:41:30;;;;;;;3.55;1.27;;;;;;;9.27;64.04;101120.19;5055237;28;20032;-76
2022/02/15 07:43:56;;;;;;;0.10;0.10;;;;;;;9.31;63.75;101121.91;5054973;28;20113;-76
2022/02/15 07:46:23;;;;;;;0.10;0.10;;;;;;;9.31;63.71;101135.13;5066870;28;20036;-76
2022/02/15 07:48:50;;;;;;;0.00;0.00;;;;;;;9.32;64.24;101123.66;5072938;28;20033;-76
2022/02/15 07:51:17;;;;;;;1.65;1.55;;;;;;;9.32;63.89;101125.41;5058412;28;20056;-76
2022/02/15 07:53:44;;;;;;;0.10;0.10;;;;;;;9.37;64.19;101128.88;5074467;28;20569;-76
2022/02/15 07:56:10;;;;;;;0.10;0.10;;;;;;;9.37;63.94;101116.56;5068830;28;20029;-78
2022/02/15 07:58:37;;;;;;;0.10;0.10;;;;;;;9.29;63.48;101122.81;5057958;28;20479;-77
2022/02/15 08:01:04;;;;;;;0.00;0.00;;;;;;;9.37;63.81;101132.41;5061431;28;20060;-76
2022/02/15 08:03:31;;;;;;;0.10;0.10;;;;;;;9.35;63.22;101128.91;5061457;28;20087;-77
2022/02/15 08:05:57;;;;;;;0.28;0.28;;;;;;;9.28;63.03;101136.94;5072978;28;20422;-77
2022/02/15 08:08:23;;;;;;;0.00;0.00;;;;;;;9.30;63.56;101133.38;5061914;28;20079;-77
2022/02/15 08:10:50;;;;;;;0.85;0.85;;;;;;;9.34;63.06;101136.88;5057431;28;20479;-76
2022/02/15 08:13:18;;;;;;;2.17;1.98;;;;;;;9.36;63.45;101128.03;5057168;28;20033;-77
2022/02/15 08:15:46;;;;;;;0.00;0.00;;;;;;;9.31;63.07;101143.06;5066374;28;20453;-77
2022/02/15 08:18:12;;;;;;;0.03;0.03;;;;;;;9.44;62.86;101142.94;5073341;28;20025;-77
2022/02/15 08:20:39;;;;;;;0.10;0.10;;;;;;;9.38;62.91;101142.13;5068193;28;20041;-76
2022/02/15 08:23:06;;;;;;;0.10;0.10;;;;;;;9.39;62.55;101145.63;5068929;28;20121;-76
2022/02/15 08:25:34;;;;;;;0.10;0.10;;;;;;;9.29;62.25;101139.53;5066741;28;20071;-76
2022/02/15 08:28:01;;;;;;;1.00;1.00;;;;;;;9.22;61.98;101151.06;5068539;28;20032;-77
2022/02/15 08:30:27;;;;;;;0.65;0.65;;;;;;;9.39;61.59;101130.66;5063311;28;20077;-74
2022/02/15 08:32:53;;;;;;;0.10;0.10;;;;;;;9.44;61.92;101157.03;5069289;28;20039;-77
2022/02/15 08:35:20;;;;;;;0.10;0.10;;;;;;;9.35;61.50;101144.78;5069378;28;20087;-75
2022/02/15 08:37:47;;;;;;;0.10;0.10;;;;;;;9.34;61.33;101155.38;5062872;28;20491;-75
2022/02/15 08:40:14;;;;;;;0.10;0.10;;;;;;;9.33;61.52;101151.88;5069370;28;20033;-76
2022/02/15 08:42:41;;;;;;;0.10;0.10;;;;;;;9.21;62.12;101157.28;5073821;28;20017;-75
2022/02/15 08:45:09;;;;;;;0.10;0.10;;;;;;;9.22;61.74;101148.41;5074123;28;20032;-75
2022/02/15 08:47:35;;;;;;;0.10;0.10;;;;;;;9.22;61.68;101148.41;5074246;28;20377;-75
2022/02/15 08:50:03;;;;;;;0.10;0.10;;;;;;;9.13;61.03;101153.81;5074052;28;20036;-75
2022/02/15 08:52:30;;;;;;;0.15;0.15;;;;;;;9.04;61.78;101154.78;5072585;28;20036;-75
2022/02/15 08:54:57;;;;;;;0.10;0.10;;;;;;;9.12;60.84;101167.91;5069718;28;20024;-77
2022/02/15 08:57:24;;;;;;;0.10;0.10;;;;;;;9.20;61.15;101155.50;5072985;28;20082;-75
2022/02/15 08:59:53;;;;;;;0.10;0.10;;;;;;;9.15;61.27;101157.31;5074025;28;20116;-79
2022/02/15 09:02:21;;;;;;;0.10;0.10;;;;;;;9.00;61.12;101156.56;5073585;28;20024;-75
2022/02/15 09:04:47;;;;;;;0.10;0.10;;;;;;;9.24;61.01;101154.59;5073459;28;20024;-75
2022/02/15 09:07:13;;;;;;;0.35;0.35;;;;;;;9.05;60.68;101156.53;5073599;28;20442;-75
2022/02/15 09:09:39;;;;;;;0.10;0.10;;;;;;;9.09;60.40;101160.03;5073660;28;20056;-75
2022/02/15 09:12:06;;;;;;;0.10;0.10;;;;;;;9.08;61.04;101156.47;5072029;28;20111;-75
2022/02/15 09:14:33;;;;;;;0.10;0.10;;;;;;;9.15;60.40;101160.84;5072832;28;20036;-74
2022/02/15 09:17:00;;;;;;;0.10;0.10;;;;;;;8.96;61.09;101146.91;5069908;28;20119;-79
2022/02/15 09:19:27;;;;;;;0.10;0.10;;;;;;;9.07;60.47;101158.25;5058672;28;20029;-75
2022/02/15 09:21:54;;;;;;;0.10;0.10;;;;;;;9.00;60.33;101163.63;5053787;28;20492;-77
2022/02/15 09:24:20;;;;;;;0.10;0.10;;;;;;;9.04;60.50;101155.63;5053760;28;20395;-77
2022/02/15 09:26:46;;;;;;;0.00;0.00;;;;;;;8.93;60.36;101168.06;5053671;28;20090;-76
2022/02/15 09:29:13;;;;;;;0.10;0.10;;;;;;;9.00;60.40;101153.91;5053215;28;20432;-75
2022/02/15 09:31:39;;;;;;;0.20;0.20;;;;;;;9.02;60.45;101157.44;5053420;28;20025;-76
2022/02/15 09:34:06;;;;;;;0.10;0.10;;;;;;;9.03;60.52;101164.47;5053199;28;20029;-76
2022/02/15 09:36:33;;;;;;;0.10;0.10;;;;;;;9.07;59.73;101166.19;5053759;28;20033;-76
2022/02/15 09:38:59;;;;;;;0.10;0.10;;;;;;;9.29;60.04;101168.63;5053445;28;20116;-76
2022/02/15 09:41:25;;;;;;;0.20;0.20;;;;;;;9.50;59.67;101164.03;5053380;28;20112;-77
2022/02/15 09:43:52;;;;;;;0.00;0.00;;;;;;;9.78;59.50;101159.31;5053561;28;20051;-77
2022/02/15 09:46:18;;;;;;;0.00;0.00;;;;;;;9.96;59.79;101158.22;5053477;28;20033;-77
2022/02/15 09:48:45;;;;;;;0.10;0.10;;;;;;;10.15;59.37;101155.31;5056231;28;20029;-77
2022/02/15 09:51:13;;;;;;;0.10;0.10;;;;;;;10.18;58.46;101152.63;5072775;28;20519;-77
2022/02/15 09:53:40;;;;;;;0.10;0.10;;;;;;;10.24;57.52;101152.53;5072085;28;20090;-76
2022/02/15 09:56:06;;;;;;;0.10;0.10;;;;;;;10.29;57.55;101163.09;5072229;28;20027;-77
2022/02/15 09:58:34;;;;;;;0.10;0.10;;;;;;;10.26;56.74;101155.19;5072337;28;20044;-77
2022/02/15 10:01:01;;;;;;;0.10;0.10;;;;;;;10.31;55.94;101159.50;5072397;28;20020;-77
2022/02/15 10:03:27;;;;;;;0.10;0.10;;;;;;;10.38;55.86;101155.06;5071814;28;20020;-77
2022/02/15 10:05:53;;;;;;;0.10;0.10;;;;;;;10.40;55.93;101153.25;5072405;28;20040;-76
2022/02/15 10:08:37;;;;;;;0.20;0.20;;;;;;;10.49;54.95;101150.47;5073475;28;20024;-77
2022/02/15 10:11:13;;;;;;;0.10;0.10;;;;;;;10.43;54.84;101144.38;5072306;28;20079;-77
2022/02/15 10:13:44;;;;;;;0.35;0.35;;;;;;;10.16;54.85;101127.97;5072111;28;20036;-77
2022/02/15 10:16:10;;;;;;;0.10;0.10;;;;;;;10.31;54.33;101122.44;5072245;28;20024;-76
2022/02/15 10:18:37;;;;;;;0.13;0.13;;;;;;;10.35;54.51;101129.47;5072504;28;20029;-77
2022/02/15 10:21:04;;;;;;;0.10;0.10;;;;;;;10.42;54.42;101130.28;5072716;28;20031;-77
2022/02/15 10:23:33;;;;;;;1.10;1.08;;;;;;;10.31;53.77;101121.56;5076888;28;20529;-76
2022/02/15 10:26:01;;;;;;;0.10;0.10;;;;;;;10.34;54.16;101132.09;5076965;28;20074;-77
2022/02/15 10:28:30;;;;;;;0.10;0.10;;;;;;;10.35;54.08;101134.75;5076962;28;20029;-76
2022/02/15 10:30:58;;;;;;;0.10;0.10;;;;;;;10.38;54.52;101128.56;5077058;28;20044;-75
2022/02/15 10:33:31;;;;;;;0.10;0.10;;;;;;;10.46;55.05;101136.41;5076757;28;20047;-77
2022/02/15 10:36:00;;;;;;;0.10;0.10;;;;;;;10.42;55.06;101139.97;5076446;28;20025;-77
2022/02/15 10:38:29;;;;;;;0.10;0.10;;;;;;;10.35;55.77;101134.75;5077027;28;20029;-77
2022/02/15 10:40:57;;;;;;;0.20;0.20;;;;;;;10.45;55.89;101129.34;5076675;28;20032;-77
2022/02/15 10:43:24;;;;;;;0.10;0.10;;;;;;;10.62;56.50;101123.78;5076487;28;20028;-77
2022/02/15 10:45:50;;;;;;;0.10;0.10;;;;;;;10.70;55.60;101119.22;5076447;28;20028;-77
2022/02/15 10:48:27;;;;;;;0.10;0.10;;;;;;;10.91;54.79;101120.66;5076606;28;20029;-77
2022/02/15 10:50:54;;;;;;;0.10;0.10;;;;;;;11.00;53.87;101120.50;5076457;28;20117;-77
2022/02/15 10:53:22;;;;;;;0.10;0.10;;;;;;;11.13;54.80;101109.69;5076358;28;20047;-77
2022/02/15 10:55:49;;;;;;;0.60;0.60;;;;;;;10.82;53.97;101123.47;5076401;28;20114;-77
2022/02/15 10:58:17;;;;;;;0.00;0.00;;;;;;;10.99;52.93;101126.72;5076222;28;20387;-77
2022/02/15 11:00:43;;;;;;;0.10;0.10;;;;;;;10.88;53.74;101133.97;5076480;28;20028;-77
2022/02/15 11:03:10;;;;;;;0.10;0.10;;;;;;;10.90;54.66;101132.16;5075613;28;20044;-77
2022/02/15 11:05:39;;;;;;;0.00;0.00;;;;;;;10.80;54.32;101157.97;5076354;28;20036;-77
2022/02/15 11:08:07;;;;;;;0.10;0.10;;;;;;;10.89;53.63;101133.06;5076093;28;20044;-77
2022/02/15 11:10:45;;;;;;;0.10;0.10;;;;;;;11.00;53.61;101122.28;5075824;28;20537;-77
2022/02/15 11:13:11;;;;;;;0.10;0.10;;;;;;;11.16;53.69;101117.56;5075702;28;20032;-77
2022/02/15 11:15:40;;;;;;;2.92;2.20;;;;;;;11.32;53.02;101119.03;5076221;28;20020;-77
2022/02/15 11:18:10;;;;;;;0.10;0.10;;;;;;;11.27;52.93;101131.50;5075948;28;20107;-77
2022/02/15 11:21:10;;;;;;;0.10;0.10;;;;;;;11.24;52.41;101142.19;5075766;28;20033;-77
2022/02/15 11:23:28;;;;;;;0.10;0.10;;;;;;;11.28;51.87;101117.34;5075517;28;20236;-77
2022/02/15 11:28:56;;;;;;;0.05;0.05;;;;;;;11.09;52.14;101121.22;5045810;28;20476;-77
2022/02/15 11:34:10;;;;;;;0.03;0.03;;;;;;;10.99;52.15;101126.72;5070081;28;20402;-77
2022/02/15 11:36:54;;;;;;;0.10;0.10;;;;;;;11.26;51.68;101112.97;5070610;28;20033;-78
2022/02/15 11:39:23;;;;;;;2.55;2.20;;;;;;;11.15;51.63;101111.41;5070512;28;20158;-77
2022/02/15 11:41:52;;;;;;;0.10;0.10;;;;;;;11.15;51.59;101098.16;5069871;28;20036;-78